createdAt,value
2023-05-12T00:00:14.523Z,25.23
2023-05-12T00:01:14.560Z,25.23
2023-05-12T00:02:14.618Z,25.23
2023-05-12T00:03:14.690Z,25.23
2023-05-12T00:04:14.627Z,25.23
2023-05-12T00:05:14.574Z,25.24
2023-05-12T00:06:14.583Z,25.24
2023-05-12T00:07:14.605Z,25.23
2023-05-12T00:08:14.616Z,25.21
2023-05-12T00:09:14.618Z,25.21
2023-05-12T00:10:14.678Z,25.23
2023-05-12T00:11:14.685Z,25.23
2023-05-12T00:12:14.672Z,25.21
2023-05-12T00:13:14.726Z,25.21
2023-05-12T00:14:14.692Z,25.21
2023-05-12T00:15:14.741Z,25.21
2023-05-12T00:16:14.752Z,25.21
2023-05-12T00:17:14.746Z,25.20
2023-05-12T00:18:14.752Z,25.21
2023-05-12T00:19:14.753Z,25.20
2023-05-12T00:20:14.764Z,25.20
2023-05-12T00:21:14.800Z,25.18
2023-05-12T00:22:14.807Z,25.20
2023-05-12T00:23:14.829Z,25.20
2023-05-12T00:24:14.849Z,25.18
2023-05-12T00:25:14.874Z,25.21
2023-05-12T00:26:14.861Z,25.20
2023-05-12T00:27:14.887Z,25.18
2023-05-12T00:28:14.898Z,25.21
2023-05-12T00:29:14.916Z,25.20
2023-05-12T00:30:14.927Z,25.23
2023-05-12T00:31:14.951Z,25.20
2023-05-12T00:32:14.957Z,25.21
2023-05-12T00:33:14.979Z,25.20
2023-05-12T00:34:14.992Z,25.20
2023-05-12T00:35:14.993Z,25.20
2023-05-12T00:36:15.033Z,25.20
2023-05-12T00:37:15.038Z,25.18
2023-05-12T00:38:15.041Z,25.23
2023-05-12T00:39:15.083Z,25.18
2023-05-12T00:40:15.110Z,25.17
2023-05-12T00:41:15.109Z,25.17
2023-05-12T00:42:15.123Z,25.20
2023-05-12T00:43:15.117Z,25.18
2023-05-12T00:44:15.207Z,25.21
2023-05-12T00:45:15.198Z,25.18
2023-05-12T00:46:15.218Z,25.18
2023-05-12T00:47:15.184Z,25.18
2023-05-12T00:48:15.209Z,25.21
2023-05-12T00:49:15.238Z,25.17
2023-05-12T00:50:15.244Z,25.15
2023-05-12T00:51:15.323Z,25.18
2023-05-12T00:52:15.304Z,25.18
2023-05-12T00:53:15.300Z,25.20
2023-05-12T00:54:15.311Z,25.15
2023-05-12T00:55:15.322Z,25.17
2023-05-12T00:56:15.332Z,25.17
2023-05-12T00:57:15.364Z,25.18
2023-05-12T00:58:15.360Z,25.17
2023-05-12T00:59:15.392Z,25.17
2023-05-12T01:00:15.406Z,25.17
2023-05-12T01:01:15.467Z,25.14
2023-05-12T01:02:15.508Z,25.17
2023-05-12T01:03:15.503Z,25.15
2023-05-12T01:04:15.472Z,25.15
2023-05-12T01:05:15.481Z,25.15
2023-05-12T01:06:15.509Z,25.17
2023-05-12T01:07:15.511Z,25.17
2023-05-12T01:08:15.530Z,25.17
2023-05-12T01:09:15.542Z,25.14
2023-05-12T01:10:15.567Z,25.15
2023-05-12T01:11:15.573Z,25.15
2023-05-12T01:12:15.599Z,25.17
2023-05-12T01:13:15.597Z,25.18
2023-05-12T01:14:15.641Z,25.14
2023-05-12T01:15:15.676Z,25.15
2023-05-12T01:16:15.680Z,25.15
2023-05-12T01:17:15.744Z,25.14
2023-05-12T01:18:15.733Z,25.15
2023-05-12T01:19:15.750Z,25.15
2023-05-12T01:20:15.743Z,25.14
2023-05-12T01:21:15.776Z,25.14
2023-05-12T01:22:15.777Z,25.14
2023-05-12T01:23:15.829Z,25.15
2023-05-12T01:24:15.802Z,25.14
2023-05-12T01:25:15.860Z,25.15
2023-05-12T01:26:15.855Z,25.15
2023-05-12T01:27:15.866Z,25.13
2023-05-12T01:28:15.879Z,25.15
2023-05-12T01:29:15.910Z,25.14
2023-05-12T01:30:15.942Z,25.14
2023-05-12T01:31:16.004Z,25.14
2023-05-12T01:32:15.984Z,25.14
2023-05-12T01:33:15.998Z,25.15
2023-05-12T01:34:16.011Z,25.11
2023-05-12T01:35:16.010Z,25.14
2023-05-12T01:36:16.040Z,25.11
2023-05-12T01:37:16.065Z,25.15
2023-05-12T01:38:16.071Z,25.14
2023-05-12T01:39:16.083Z,25.13
2023-05-12T01:40:16.113Z,25.13
2023-05-12T01:41:16.129Z,25.13
2023-05-12T01:42:16.159Z,25.13
2023-05-12T01:43:16.164Z,25.13
2023-05-12T01:44:16.186Z,25.14
2023-05-12T01:45:16.209Z,25.13
2023-05-12T01:46:16.314Z,25.14
2023-05-12T01:47:16.281Z,25.13
2023-05-12T01:48:16.276Z,25.13
2023-05-12T01:49:16.298Z,25.14
2023-05-12T01:50:16.342Z,25.13
2023-05-12T01:51:16.370Z,25.13
2023-05-12T01:52:16.382Z,25.14
2023-05-12T01:53:16.391Z,25.13
2023-05-12T01:54:16.431Z,25.13
2023-05-12T01:55:16.434Z,25.11
2023-05-12T01:56:16.474Z,25.14
2023-05-12T01:57:16.485Z,25.11
2023-05-12T01:58:16.526Z,25.15
2023-05-12T01:59:16.556Z,25.11
2023-05-12T02:00:16.581Z,25.11
2023-05-12T02:01:16.663Z,25.11
2023-05-12T02:02:16.663Z,25.11
2023-05-12T02:03:16.715Z,25.11
2023-05-12T02:04:16.733Z,25.11
2023-05-12T02:05:16.673Z,25.10
2023-05-12T02:06:16.687Z,25.11
2023-05-12T02:07:16.717Z,25.11
2023-05-12T02:08:16.721Z,25.09
2023-05-12T02:09:16.762Z,25.07
2023-05-12T02:10:16.986Z,25.11
2023-05-12T02:11:17.231Z,25.14
2023-05-12T02:12:16.806Z,25.11
2023-05-12T02:13:16.828Z,25.10
2023-05-12T02:14:16.853Z,25.13
2023-05-12T02:15:16.869Z,25.13
2023-05-12T02:16:16.946Z,25.10
2023-05-12T02:17:16.923Z,25.13
2023-05-12T02:18:16.925Z,25.10
2023-05-12T02:19:16.948Z,25.11
2023-05-12T02:20:17.091Z,25.10
2023-05-12T02:21:16.996Z,25.09
2023-05-12T02:22:17.013Z,25.13
2023-05-12T02:23:17.045Z,25.09
2023-05-12T02:24:17.064Z,25.10
2023-05-12T02:25:17.068Z,25.10
2023-05-12T02:26:17.073Z,25.10
2023-05-12T02:27:17.093Z,25.09
2023-05-12T02:28:17.114Z,25.09
2023-05-12T02:29:17.157Z,25.07
2023-05-12T02:30:17.160Z,25.09
2023-05-12T02:31:17.169Z,25.10
2023-05-12T02:32:17.198Z,25.10
2023-05-12T02:33:17.224Z,25.09
2023-05-12T02:34:17.241Z,25.10
2023-05-12T02:35:17.257Z,25.06
2023-05-12T02:36:17.300Z,25.09
2023-05-12T02:37:17.294Z,25.09
2023-05-12T02:38:17.321Z,25.11
2023-05-12T02:39:17.336Z,25.10
2023-05-12T02:40:17.408Z,25.10
2023-05-12T02:41:17.391Z,25.09
2023-05-12T02:42:17.385Z,25.09
2023-05-12T02:43:17.401Z,25.06
2023-05-12T02:44:17.426Z,25.09
2023-05-12T02:45:17.470Z,25.11
2023-05-12T02:46:17.556Z,25.07
2023-05-12T02:47:17.481Z,25.07
2023-05-12T02:48:17.500Z,25.09
2023-05-12T02:49:17.533Z,25.09
2023-05-12T02:50:17.592Z,25.09
2023-05-12T02:51:17.574Z,25.07
2023-05-12T02:52:17.602Z,25.09
2023-05-12T02:53:17.615Z,25.10
2023-05-12T02:54:17.639Z,25.07
2023-05-12T02:55:17.664Z,25.07
2023-05-12T02:56:17.686Z,25.07
2023-05-12T02:57:17.723Z,25.07
2023-05-12T02:58:17.737Z,25.09
2023-05-12T02:59:17.760Z,25.06
2023-05-12T03:00:17.906Z,25.10
2023-05-12T03:01:17.834Z,25.07
2023-05-12T03:02:17.880Z,25.06
2023-05-12T03:03:17.912Z,25.06
2023-05-12T03:04:17.901Z,25.06
2023-05-12T03:05:17.902Z,25.03
2023-05-12T03:06:17.911Z,25.09
2023-05-12T03:07:17.959Z,25.07
2023-05-12T03:08:17.954Z,25.04
2023-05-12T03:09:17.997Z,25.04
2023-05-12T03:10:18.292Z,25.09
2023-05-12T03:11:18.063Z,25.07
2023-05-12T03:12:18.097Z,25.07
2023-05-12T03:13:18.093Z,25.07
2023-05-12T03:14:18.122Z,25.07
2023-05-12T03:15:18.140Z,25.06
2023-05-12T03:16:19.972Z,25.06
2023-05-12T03:17:18.208Z,25.04
2023-05-12T03:18:18.199Z,25.06
2023-05-12T03:19:18.231Z,25.04
2023-05-12T03:20:18.452Z,25.09
2023-05-12T03:21:18.283Z,25.07
2023-05-12T03:22:18.320Z,25.04
2023-05-12T03:23:18.430Z,25.06
2023-05-12T03:24:18.380Z,25.04
2023-05-12T03:25:18.383Z,25.04
2023-05-12T03:26:18.423Z,25.04
2023-05-12T03:27:18.473Z,25.04
2023-05-12T03:28:18.529Z,25.06
2023-05-12T03:29:18.497Z,25.04
2023-05-12T03:30:18.717Z,25.03
2023-05-12T03:31:18.611Z,25.04
2023-05-12T03:32:18.629Z,25.04
2023-05-12T03:33:18.586Z,25.03
2023-05-12T03:34:18.616Z,25.04
2023-05-12T03:35:18.666Z,25.04
2023-05-12T03:36:18.679Z,25.06
2023-05-12T03:37:18.709Z,25.06
2023-05-12T03:38:18.754Z,25.03
2023-05-12T03:39:18.762Z,25.03
2023-05-12T03:40:19.244Z,25.06
2023-05-12T03:41:18.809Z,25.04
2023-05-12T03:42:18.829Z,25.04
2023-05-12T03:43:18.855Z,25.02
2023-05-12T03:44:18.893Z,25.03
2023-05-12T03:45:18.917Z,25.03
2023-05-12T03:46:19.049Z,25.02
2023-05-12T03:47:19.065Z,25.03
2023-05-12T03:48:18.983Z,25.03
2023-05-12T03:49:19.043Z,25.04
2023-05-12T03:50:19.272Z,25.02
2023-05-12T03:51:19.040Z,25.04
2023-05-12T03:52:19.074Z,25.06
2023-05-12T03:53:19.110Z,25.04
2023-05-12T03:54:19.145Z,25.03
2023-05-12T03:55:19.178Z,25.04
2023-05-12T03:56:19.210Z,25.03
2023-05-12T03:57:19.228Z,25.03
2023-05-12T03:58:19.259Z,25.03
2023-05-12T03:59:19.289Z,25.04
2023-05-12T04:00:19.393Z,25.00
2023-05-12T04:01:19.337Z,25.03
2023-05-12T04:02:19.451Z,25.02
2023-05-12T04:03:19.458Z,25.04
2023-05-12T04:04:19.413Z,25.07
2023-05-12T04:05:19.430Z,25.04
2023-05-12T04:06:19.462Z,25.03
2023-05-12T04:07:19.491Z,25.03
2023-05-12T04:08:19.541Z,25.02
2023-05-12T04:09:19.536Z,25.03
2023-05-12T04:10:19.713Z,25.06
2023-05-12T04:11:19.581Z,25.03
2023-05-12T04:12:19.602Z,25.02
2023-05-12T04:13:19.627Z,25.04
2023-05-12T04:14:20.464Z,25.03
2023-05-12T04:15:19.665Z,25.06
2023-05-12T04:16:19.671Z,25.07
2023-05-12T04:17:19.668Z,25.04
2023-05-12T04:18:19.665Z,25.03
2023-05-12T04:19:20.019Z,25.06
2023-05-12T04:20:19.816Z,25.07
2023-05-12T04:21:19.615Z,25.06
2023-05-12T04:22:19.607Z,25.04
2023-05-12T04:23:19.613Z,25.06
2023-05-12T04:24:19.596Z,25.06
2023-05-12T04:25:19.598Z,25.07
2023-05-12T04:26:19.602Z,25.04
2023-05-12T04:27:19.596Z,25.06
2023-05-12T04:28:19.574Z,25.07
2023-05-12T04:29:19.575Z,25.09
2023-05-12T04:30:19.812Z,25.07
2023-05-12T04:31:19.606Z,25.06
2023-05-12T04:32:19.549Z,25.04
2023-05-12T04:33:19.553Z,25.09
2023-05-12T04:34:19.528Z,25.04
2023-05-12T04:35:19.561Z,25.06
2023-05-12T04:36:19.590Z,25.07
2023-05-12T04:37:19.615Z,25.07
2023-05-12T04:38:19.651Z,25.04
2023-05-12T04:39:19.675Z,25.07
2023-05-12T04:40:19.914Z,25.04
2023-05-12T04:41:19.727Z,25.09
2023-05-12T04:42:19.744Z,25.06
2023-05-12T04:44:19.774Z,25.09
2023-05-12T04:45:19.988Z,25.04
2023-05-12T04:46:19.824Z,25.07
2023-05-12T04:47:19.791Z,25.04
2023-05-12T04:48:19.734Z,25.07
2023-05-12T04:49:19.734Z,25.07
2023-05-12T04:50:19.740Z,25.07
2023-05-12T04:51:19.769Z,25.07
2023-05-12T04:52:19.728Z,25.06
2023-05-12T04:53:19.700Z,25.09
2023-05-12T04:54:19.708Z,25.07
2023-05-12T04:55:19.804Z,25.10
2023-05-12T04:56:19.698Z,25.11
2023-05-12T04:57:19.683Z,25.11
2023-05-12T04:58:19.683Z,25.11
2023-05-12T04:59:19.655Z,25.14
2023-05-12T05:00:19.656Z,25.17
2023-05-12T05:01:19.689Z,25.17
2023-05-12T05:02:19.693Z,25.18
2023-05-12T05:03:19.763Z,25.18
2023-05-12T05:04:19.654Z,25.20
2023-05-12T05:05:19.888Z,25.20
2023-05-12T05:06:19.615Z,25.21
2023-05-12T05:07:19.621Z,25.25
2023-05-12T05:08:19.619Z,25.25
2023-05-12T05:09:19.588Z,25.25
2023-05-12T05:10:19.597Z,25.25
2023-05-12T05:11:19.630Z,25.25
2023-05-12T05:12:19.593Z,25.27
2023-05-12T05:13:19.577Z,25.28
2023-05-12T05:14:19.577Z,25.30
2023-05-12T05:15:19.763Z,25.27
2023-05-12T05:16:19.614Z,25.28
2023-05-12T05:17:19.558Z,25.30
2023-05-12T05:18:20.568Z,25.30
2023-05-12T05:19:25.714Z,25.31
2023-05-12T05:20:20.546Z,25.31
2023-05-12T05:21:19.534Z,25.31
2023-05-12T05:22:19.521Z,25.31
2023-05-12T05:23:19.506Z,25.32
2023-05-12T05:24:19.501Z,25.34
2023-05-12T05:25:19.638Z,25.34
2023-05-12T05:26:19.487Z,25.38
2023-05-12T05:27:19.514Z,25.37
2023-05-12T05:28:19.487Z,25.38
2023-05-12T05:29:19.466Z,25.38
2023-05-12T05:30:19.465Z,25.40
2023-05-12T05:31:19.437Z,25.45
2023-05-12T05:32:19.459Z,25.48
2023-05-12T05:33:19.431Z,25.55
2023-05-12T05:34:19.469Z,25.55
2023-05-12T05:35:19.609Z,25.59
2023-05-12T05:36:19.423Z,25.64
2023-05-12T05:37:19.443Z,25.66
2023-05-12T05:38:19.388Z,25.69
2023-05-12T05:39:19.388Z,25.73
2023-05-12T05:40:19.380Z,25.79
2023-05-12T05:41:19.392Z,25.85
2023-05-12T05:42:19.361Z,25.90
2023-05-12T05:43:19.352Z,25.97
2023-05-12T05:44:19.365Z,26.03
2023-05-12T05:45:19.522Z,26.10
2023-05-12T05:46:19.477Z,26.19
2023-05-12T05:47:19.861Z,26.26
2023-05-12T05:48:19.595Z,26.31
2023-05-12T05:49:19.612Z,26.36
2023-05-12T05:50:19.636Z,26.40
2023-05-12T05:51:19.676Z,26.45
2023-05-12T05:52:19.838Z,26.50
2023-05-12T05:53:19.738Z,26.55
2023-05-12T05:54:19.778Z,26.57
2023-05-12T05:55:20.160Z,26.67
2023-05-12T05:56:19.826Z,26.71
2023-05-12T05:57:19.879Z,26.78
2023-05-12T05:58:19.902Z,26.81
2023-05-12T05:59:19.920Z,26.88
2023-05-12T06:00:19.889Z,26.92
2023-05-12T06:01:19.922Z,27.01
2023-05-12T06:02:19.959Z,27.05
2023-05-12T06:03:19.972Z,27.12
2023-05-12T06:04:19.997Z,27.13
2023-05-12T06:05:20.211Z,27.19
2023-05-12T06:06:19.943Z,27.22
2023-05-12T06:07:22.112Z,27.22
2023-05-12T06:08:19.968Z,27.22
2023-05-12T06:09:19.945Z,27.23
2023-05-12T06:10:20.208Z,27.26
2023-05-12T06:11:19.949Z,27.26
2023-05-12T06:12:19.983Z,27.28
2023-05-12T06:13:19.967Z,27.29
2023-05-12T06:14:19.943Z,27.33
2023-05-12T06:15:20.115Z,27.33
2023-05-12T06:16:19.951Z,27.34
2023-05-12T06:17:20.021Z,27.36
2023-05-12T06:18:19.999Z,27.39
2023-05-12T06:19:19.947Z,27.39
2023-05-12T06:20:20.013Z,27.39
2023-05-12T06:21:19.957Z,27.40
2023-05-12T06:22:19.992Z,27.43
2023-05-12T06:23:19.966Z,27.44
2023-05-12T06:24:19.955Z,27.47
2023-05-12T06:25:20.212Z,27.49
2023-05-12T06:26:20.001Z,27.49
2023-05-12T06:27:19.989Z,27.51
2023-05-12T06:28:20.374Z,27.53
2023-05-12T06:29:20.012Z,27.54
2023-05-12T06:30:20.060Z,27.53
2023-05-12T06:31:20.095Z,27.37
2023-05-12T06:32:20.112Z,27.30
2023-05-12T06:33:20.336Z,27.36
2023-05-12T06:34:20.041Z,27.36
2023-05-12T06:35:20.177Z,27.29
2023-05-12T06:36:20.056Z,27.20
2023-05-12T06:37:20.050Z,27.12
2023-05-12T06:38:20.085Z,27.03
2023-05-12T06:39:20.092Z,26.96
2023-05-12T06:40:20.119Z,26.96
2023-05-12T06:41:20.133Z,26.93
2023-05-12T06:42:20.162Z,26.91
2023-05-12T06:43:20.149Z,26.92
2023-05-12T06:44:20.167Z,26.88
2023-05-12T06:45:20.570Z,26.86
2023-05-12T06:46:20.202Z,26.91
2023-05-12T06:47:20.195Z,26.89
2023-05-12T06:48:20.359Z,26.91
2023-05-12T06:49:20.219Z,26.91
2023-05-12T06:50:20.228Z,26.91
2023-05-12T06:51:20.215Z,26.92
2023-05-12T06:52:20.233Z,26.95
2023-05-12T06:53:20.345Z,26.92
2023-05-12T06:54:20.248Z,26.93
2023-05-12T06:55:20.713Z,26.91
2023-05-12T06:56:20.246Z,26.93
2023-05-12T06:57:20.244Z,26.91
2023-05-12T06:58:20.351Z,26.91
2023-05-12T06:59:21.361Z,26.89
2023-05-12T07:00:20.265Z,26.86
2023-05-12T07:01:20.306Z,26.85
2023-05-12T07:02:20.382Z,26.82
2023-05-12T07:03:20.326Z,26.82
2023-05-12T07:04:20.290Z,26.79
2023-05-12T07:05:20.441Z,26.78
2023-05-12T07:06:20.345Z,26.78
2023-05-12T07:07:20.310Z,26.78
2023-05-12T07:08:20.314Z,26.77
2023-05-12T07:09:20.304Z,26.79
2023-05-12T07:10:20.311Z,26.77
2023-05-12T07:11:20.454Z,26.81
2023-05-12T07:12:20.326Z,26.81
2023-05-12T07:13:20.332Z,26.78
2023-05-12T07:14:20.336Z,26.78
2023-05-12T07:15:20.464Z,26.78
2023-05-12T07:16:20.378Z,26.78
2023-05-12T07:17:20.343Z,26.79
2023-05-12T07:18:20.381Z,26.77
2023-05-12T07:19:20.371Z,26.77
2023-05-12T07:20:20.357Z,26.77
2023-05-12T07:21:20.372Z,26.77
2023-05-12T07:22:20.358Z,26.78
2023-05-12T07:23:20.877Z,26.77
2023-05-12T07:24:20.381Z,26.78
2023-05-12T07:25:20.564Z,26.81
2023-05-12T07:26:20.408Z,26.88
2023-05-12T07:27:20.382Z,26.82
2023-05-12T07:28:20.917Z,26.79
2023-05-12T07:29:20.426Z,26.78
2023-05-12T07:30:20.429Z,26.81
2023-05-12T07:31:20.443Z,26.79
2023-05-12T07:32:20.474Z,26.74
2023-05-12T07:33:20.869Z,26.77
2023-05-12T07:34:20.499Z,26.74
2023-05-12T07:35:20.840Z,26.72
2023-05-12T07:36:21.952Z,26.74
2023-05-12T07:37:20.558Z,26.77
2023-05-12T07:38:20.562Z,26.77
2023-05-12T07:39:20.572Z,26.78
2023-05-12T07:40:20.696Z,26.79
2023-05-12T07:41:20.615Z,26.79
2023-05-12T07:42:20.618Z,26.79
2023-05-12T07:43:20.639Z,26.78
2023-05-12T07:44:20.643Z,26.81
2023-05-12T07:45:20.886Z,26.79
2023-05-12T07:46:20.718Z,26.77
2023-05-12T07:47:20.693Z,26.78
2023-05-12T07:48:20.697Z,26.74
2023-05-12T07:49:20.698Z,26.75
2023-05-12T07:50:20.737Z,26.70
2023-05-12T07:51:20.758Z,26.71
2023-05-12T07:52:20.804Z,26.70
2023-05-12T07:53:20.896Z,26.70
2023-05-12T07:54:20.762Z,26.67
2023-05-12T07:55:21.145Z,26.74
2023-05-12T07:56:20.817Z,26.91
2023-05-12T07:57:20.807Z,27.01
2023-05-12T07:58:20.911Z,27.07
2023-05-12T07:59:20.808Z,27.14
2023-05-12T08:00:20.832Z,27.23
2023-05-12T08:01:20.888Z,27.32
2023-05-12T08:02:21.027Z,27.34
2023-05-12T08:03:21.441Z,27.41
2023-05-12T08:04:21.050Z,27.46
2023-05-12T08:05:21.272Z,27.51
2023-05-12T08:06:21.085Z,27.60
2023-05-12T08:07:21.153Z,27.64
2023-05-12T08:08:21.230Z,27.68
2023-05-12T08:09:21.251Z,27.75
2023-05-12T08:10:21.304Z,27.77
2023-05-12T08:11:21.358Z,27.78
2023-05-12T08:12:21.482Z,27.81
2023-05-12T08:13:21.539Z,27.83
2023-05-12T08:14:21.521Z,27.87
2023-05-12T08:15:21.878Z,27.88
2023-05-12T08:16:21.636Z,27.87
2023-05-12T08:17:21.682Z,27.89
2023-05-12T08:18:21.802Z,27.91
2023-05-12T08:19:21.820Z,27.92
2023-05-12T08:20:21.855Z,27.94
2023-05-12T08:21:21.981Z,27.91
2023-05-12T08:22:21.973Z,27.67
2023-05-12T08:23:21.994Z,27.60
2023-05-12T08:24:22.052Z,27.50
2023-05-12T08:25:22.273Z,27.41
2023-05-12T08:26:22.025Z,27.34
2023-05-12T08:27:22.077Z,27.36
2023-05-12T08:28:22.036Z,27.40
2023-05-12T08:29:22.098Z,27.47
2023-05-12T08:30:22.062Z,27.51
2023-05-12T08:31:22.126Z,27.58
2023-05-12T08:32:22.203Z,27.62
2023-05-12T08:33:22.195Z,27.70
2023-05-12T08:34:22.283Z,27.74
2023-05-12T08:35:22.480Z,27.75
2023-05-12T08:36:22.355Z,27.39
2023-05-12T08:37:22.412Z,27.60
2023-05-12T08:38:23.419Z,27.62
2023-05-12T08:39:22.521Z,27.61
2023-05-12T08:40:22.598Z,27.64
2023-05-12T08:41:22.600Z,27.71
2023-05-12T08:42:22.661Z,27.72
2023-05-12T08:43:22.912Z,27.78
2023-05-12T08:44:22.964Z,27.84
2023-05-12T08:45:22.835Z,27.83
2023-05-12T08:46:22.959Z,27.89
2023-05-12T08:47:22.989Z,27.92
2023-05-12T08:48:23.035Z,27.96
2023-05-12T08:49:23.092Z,27.96
2023-05-12T08:50:23.250Z,28.01
2023-05-12T08:51:23.198Z,28.04
2023-05-12T08:52:23.230Z,28.08
2023-05-12T08:53:23.291Z,28.11
2023-05-12T08:54:23.297Z,28.09
2023-05-12T08:55:27.391Z,28.12
2023-05-12T08:57:23.340Z,28.13
2023-05-12T08:58:33.969Z,28.16
2023-05-12T08:59:24.327Z,28.20
2023-05-12T09:00:23.512Z,28.22
2023-05-12T09:01:23.366Z,28.20
2023-05-12T09:02:23.622Z,28.23
2023-05-12T09:03:23.432Z,28.25
2023-05-12T09:04:23.330Z,28.22
2023-05-12T09:05:23.580Z,28.25
2023-05-12T09:06:23.276Z,28.25
2023-05-12T09:07:23.282Z,28.25
2023-05-12T09:08:23.336Z,28.23
2023-05-12T09:09:23.376Z,28.26
2023-05-12T09:10:34.377Z,28.26
2023-05-12T09:11:24.408Z,28.27
2023-05-12T09:12:23.397Z,28.29
2023-05-12T09:13:23.428Z,28.27
2023-05-12T09:14:23.393Z,28.29
2023-05-12T09:15:23.446Z,28.29
2023-05-12T09:16:23.583Z,28.30
2023-05-12T09:17:23.394Z,28.29
2023-05-12T09:18:23.476Z,28.35
2023-05-12T09:19:23.338Z,28.33
2023-05-12T09:20:30.830Z,28.33
2023-05-12T09:21:24.336Z,28.32
2023-05-12T09:22:23.331Z,28.29
2023-05-12T09:23:23.329Z,28.29
2023-05-12T09:24:23.408Z,28.27
2023-05-12T09:25:23.319Z,28.25
2023-05-12T09:26:23.307Z,28.15
2023-05-12T09:27:23.290Z,27.53
2023-05-12T09:28:23.298Z,26.82
2023-05-12T09:29:30.690Z,26.62
2023-05-12T09:30:24.277Z,26.17
2023-05-12T09:31:23.308Z,26.16
2023-05-12T09:32:23.277Z,26.21
2023-05-12T09:33:23.238Z,26.30
2023-05-12T09:34:23.258Z,26.41
2023-05-12T09:35:23.229Z,26.51
2023-05-12T09:36:23.233Z,26.61
2023-05-12T09:37:23.232Z,26.77
2023-05-12T09:38:23.220Z,26.85
2023-05-12T09:39:23.415Z,26.95
2023-05-12T09:40:23.213Z,27.05
2023-05-12T09:41:23.227Z,27.10
2023-05-12T09:42:23.199Z,27.17
2023-05-12T09:43:23.187Z,27.26
2023-05-12T09:44:23.169Z,27.36
2023-05-12T09:45:23.174Z,27.40
2023-05-12T09:46:23.174Z,27.49
2023-05-12T09:47:23.252Z,27.56
2023-05-12T09:48:24.077Z,27.60
2023-05-12T09:49:23.448Z,27.62
2023-05-12T09:50:23.308Z,27.68
2023-05-12T09:51:23.939Z,27.74
2023-05-12T09:52:23.427Z,27.75
2023-05-12T09:53:23.533Z,27.77
2023-05-12T09:54:23.923Z,27.81
2023-05-12T09:55:23.601Z,27.84
2023-05-12T09:56:23.630Z,27.84
2023-05-12T09:57:23.692Z,27.88
2023-05-12T09:58:23.789Z,27.88
2023-05-12T09:59:23.833Z,27.91
2023-05-12T10:00:38.682Z,27.95
2023-05-12T10:01:25.045Z,27.99
2023-05-12T10:02:24.089Z,28.01
2023-05-12T10:03:23.860Z,28.04
2023-05-12T10:04:23.891Z,28.09
2023-05-12T10:05:23.933Z,28.12
2023-05-12T10:06:23.839Z,28.12
2023-05-12T10:07:23.857Z,28.12
2023-05-12T10:08:23.855Z,28.13
2023-05-12T10:09:23.960Z,28.13
2023-05-12T10:10:23.857Z,28.16
2023-05-12T10:11:23.877Z,28.15
2023-05-12T10:12:23.928Z,28.16
2023-05-12T10:13:23.998Z,28.19
2023-05-12T10:14:24.425Z,27.26
2023-05-12T10:15:24.078Z,27.44
2023-05-12T10:16:24.177Z,27.43
2023-05-12T10:17:24.123Z,27.33
2023-05-12T10:18:24.078Z,27.36
2023-05-12T10:19:24.095Z,27.33
2023-05-12T10:20:24.105Z,27.37
2023-05-12T10:21:24.094Z,27.40
2023-05-12T10:22:24.084Z,27.44
2023-05-12T10:23:24.095Z,27.49
2023-05-12T10:24:24.450Z,27.51
2023-05-12T10:25:24.223Z,27.58
2023-05-12T10:26:24.229Z,27.54
2023-05-12T10:27:24.286Z,27.58
2023-05-12T10:28:24.348Z,27.62
2023-05-12T10:29:24.395Z,27.70
2023-05-12T10:30:24.445Z,27.74
2023-05-12T10:31:24.592Z,27.71
2023-05-12T10:32:24.643Z,27.74
2023-05-12T10:33:24.626Z,27.54
2023-05-12T10:34:24.617Z,27.46
2023-05-12T10:35:24.631Z,27.40
2023-05-12T10:36:24.681Z,27.23
2023-05-12T10:37:24.732Z,27.16
2023-05-12T10:38:24.722Z,27.09
2023-05-12T10:39:24.773Z,27.10
2023-05-12T10:40:24.799Z,27.12
2023-05-12T10:41:24.816Z,27.12
2023-05-12T10:42:24.828Z,27.16
2023-05-12T10:43:24.913Z,27.19
2023-05-12T10:44:24.846Z,27.23
2023-05-12T10:45:24.909Z,27.25
2023-05-12T10:46:24.917Z,27.32
2023-05-12T10:47:24.944Z,27.33
2023-05-12T10:48:24.897Z,27.41
2023-05-12T10:49:24.910Z,27.47
2023-05-12T10:50:24.966Z,27.50
2023-05-12T10:51:25.003Z,27.58
2023-05-12T10:52:25.023Z,27.60
2023-05-12T10:53:27.232Z,27.62
2023-05-12T10:54:26.459Z,27.65
2023-05-12T10:55:25.379Z,27.68
2023-05-12T10:56:25.504Z,27.71
2023-05-12T10:57:25.253Z,27.70
2023-05-12T10:58:25.318Z,27.74
2023-05-12T10:59:25.356Z,27.74
2023-05-12T11:00:25.890Z,27.75
2023-05-12T11:01:25.450Z,27.77
2023-05-12T11:02:26.187Z,27.77
2023-05-12T11:03:25.566Z,27.81
2023-05-12T11:04:25.515Z,27.81
2023-05-12T11:05:25.393Z,27.84
2023-05-12T11:06:25.657Z,27.84
2023-05-12T11:07:25.159Z,27.85
2023-05-12T11:08:25.760Z,27.84
2023-05-12T11:09:25.177Z,27.85
2023-05-12T11:10:26.714Z,27.85
2023-05-12T11:11:25.131Z,27.87
2023-05-12T11:12:25.001Z,27.87
2023-05-12T11:13:24.983Z,27.87
2023-05-12T11:14:25.482Z,27.88
2023-05-12T11:15:24.954Z,27.89
2023-05-12T11:16:24.999Z,27.91
2023-05-12T11:17:24.983Z,27.91
2023-05-12T11:18:24.963Z,27.91
2023-05-12T11:19:24.956Z,27.96
2023-05-12T11:20:24.954Z,27.98
2023-05-12T11:21:24.920Z,28.01
2023-05-12T11:22:24.925Z,28.04
2023-05-12T11:23:24.961Z,28.08
2023-05-12T11:24:25.481Z,28.09
2023-05-12T11:25:25.183Z,27.94
2023-05-12T11:26:25.093Z,27.85
2023-05-12T11:27:26.142Z,27.77
2023-05-12T11:28:25.196Z,27.70
2023-05-12T11:29:25.257Z,27.61
2023-05-12T11:30:25.313Z,27.58
2023-05-12T11:31:25.395Z,27.50
2023-05-12T11:32:25.466Z,27.46
2023-05-12T11:33:25.474Z,27.41
2023-05-12T11:34:25.549Z,27.37
2023-05-12T11:35:25.668Z,27.34
2023-05-12T11:36:25.635Z,27.30
2023-05-12T11:37:25.676Z,27.26
2023-05-12T11:38:25.721Z,27.22
2023-05-12T11:39:25.739Z,27.20
2023-05-12T11:40:25.761Z,27.17
2023-05-12T11:41:25.769Z,27.14
2023-05-12T11:42:25.996Z,27.14
2023-05-12T11:43:25.807Z,27.10
2023-05-12T11:44:25.846Z,27.07
2023-05-12T11:45:25.870Z,27.06
2023-05-12T11:46:25.865Z,27.05
2023-05-12T11:47:25.877Z,27.05
2023-05-12T11:48:25.861Z,27.03
2023-05-12T11:49:25.882Z,27.02
2023-05-12T11:50:25.937Z,26.98
2023-05-12T11:51:25.847Z,26.99
2023-05-12T11:52:25.852Z,26.95
2023-05-12T11:53:27.117Z,26.95
2023-05-12T11:54:25.939Z,26.96
2023-05-12T11:55:25.895Z,26.93
2023-05-12T11:56:25.867Z,26.92
2023-05-12T11:57:25.870Z,26.95
2023-05-12T11:58:25.898Z,26.89
2023-05-12T11:59:25.859Z,26.89
2023-05-12T12:00:25.865Z,26.86
2023-05-12T12:01:25.843Z,26.89
2023-05-12T12:02:25.954Z,26.88
2023-05-12T12:03:25.893Z,26.89
2023-05-12T12:04:26.134Z,26.89
2023-05-12T12:05:25.889Z,26.88
2023-05-12T12:06:25.865Z,26.89
2023-05-12T12:07:25.865Z,26.88
2023-05-12T12:08:25.860Z,26.88
2023-05-12T12:09:26.013Z,26.89
2023-05-12T12:10:25.855Z,26.91
2023-05-12T12:11:25.870Z,26.89
2023-05-12T12:12:25.926Z,26.89
2023-05-12T12:13:25.950Z,26.86
2023-05-12T12:14:25.890Z,26.89
2023-05-12T12:15:25.857Z,26.89
2023-05-12T12:16:25.912Z,26.88
2023-05-12T12:17:25.894Z,26.88
2023-05-12T12:18:25.933Z,26.86
2023-05-12T12:19:25.912Z,26.89
2023-05-12T12:20:25.902Z,26.89
2023-05-12T12:21:25.924Z,26.85
2023-05-12T12:22:25.895Z,26.85
2023-05-12T12:23:25.937Z,26.82
2023-05-12T12:24:25.966Z,26.85
2023-05-12T12:25:25.935Z,26.82
2023-05-12T12:26:25.919Z,26.84
2023-05-12T12:27:25.946Z,26.85
2023-05-12T12:28:25.964Z,26.84
2023-05-12T12:29:25.922Z,26.81
2023-05-12T12:30:25.928Z,26.84
2023-05-12T12:31:25.973Z,26.82
2023-05-12T12:32:25.956Z,26.84
2023-05-12T12:33:25.952Z,26.85
2023-05-12T12:34:25.992Z,26.92
2023-05-12T12:35:25.940Z,26.95
2023-05-12T12:36:25.943Z,27.01
2023-05-12T12:37:25.968Z,27.05
2023-05-12T12:38:25.961Z,27.09
2023-05-12T12:39:25.980Z,27.12
2023-05-12T12:40:25.998Z,27.13
2023-05-12T12:41:26.031Z,27.16
2023-05-12T12:42:26.032Z,27.19
2023-05-12T12:43:26.065Z,27.19
2023-05-12T12:44:26.131Z,27.22
2023-05-12T12:45:26.554Z,27.22
2023-05-12T12:46:26.153Z,27.26
2023-05-12T12:47:26.248Z,27.25
2023-05-12T12:48:26.189Z,27.29
2023-05-12T12:49:26.211Z,27.29
2023-05-12T12:50:27.316Z,27.30
2023-05-12T12:51:32.621Z,27.32
2023-05-12T12:52:27.292Z,27.33
2023-05-12T12:53:26.278Z,27.34
2023-05-12T12:54:26.252Z,27.36